createdAt,value
2018-01-19T00:00:23.077Z,5.30
2018-01-19T00:02:25.836Z,5.20
2018-01-19T00:07:12.374Z,4.70
2018-01-19T00:09:15.028Z,4.50
2018-01-19T00:11:17.670Z,5.30
2018-01-19T00:13:20.370Z,5.00
2018-01-19T00:15:23.203Z,4.30
2018-01-19T00:17:29.578Z,4.70
2018-01-19T00:19:32.280Z,4.23
2018-01-19T00:21:35.025Z,3.40
2018-01-19T00:23:38.473Z,4.00
2018-01-19T00:25:41.147Z,3.43
2018-01-19T00:27:43.789Z,3.90
2018-01-19T00:29:46.460Z,4.07
2018-01-19T00:31:49.108Z,3.73
2018-01-19T00:33:51.736Z,3.47
2018-01-19T00:35:54.593Z,3.70
2018-01-19T00:37:57.233Z,3.87
2018-01-19T00:39:59.874Z,5.23
2018-01-19T00:42:02.571Z,4.43
2018-01-19T00:44:05.243Z,5.30
2018-01-19T00:46:07.921Z,7.57
2018-01-19T00:48:10.595Z,6.93
2018-01-19T00:50:13.246Z,7.47
2018-01-19T00:52:15.992Z,8.70
2018-01-19T00:54:19.425Z,8.20
2018-01-19T00:56:22.177Z,8.23
2018-01-19T00:58:24.831Z,8.27
2018-01-19T01:00:28.274Z,10.70
2018-01-19T01:02:30.917Z,9.53
2018-01-19T01:04:33.594Z,10.10
2018-01-19T01:06:36.257Z,10.53
2018-01-19T01:08:39.655Z,11.80
2018-01-19T01:10:43.097Z,11.50
2018-01-19T01:12:45.754Z,12.30
2018-01-19T01:14:48.391Z,12.77
2018-01-19T01:16:51.908Z,12.10
2018-01-19T01:18:54.553Z,12.00
2018-01-19T01:20:57.969Z,11.80
2018-01-19T01:23:00.636Z,11.73
2018-01-19T01:25:04.142Z,9.07
2018-01-19T01:27:06.813Z,10.37
2018-01-19T01:29:09.450Z,9.07
2018-01-19T01:31:12.374Z,9.73
2018-01-19T01:33:15.175Z,10.10
2018-01-19T01:35:17.828Z,9.40
2018-01-19T01:37:20.469Z,8.90
2018-01-19T01:39:23.195Z,8.40
2018-01-19T01:41:25.869Z,7.50
2018-01-19T01:43:28.543Z,8.20
2018-01-19T01:45:31.180Z,8.27
2018-01-19T01:47:33.828Z,7.47
2018-01-19T01:49:36.515Z,8.60
2018-01-19T01:51:39.207Z,7.30
2018-01-19T01:53:41.852Z,9.50
2018-01-19T01:55:44.518Z,8.60
2018-01-19T01:57:47.149Z,9.70
2018-01-19T01:59:50.608Z,9.50
2018-01-19T02:01:53.286Z,9.93
2018-01-19T02:03:55.957Z,10.57
2018-01-19T02:05:58.594Z,10.27
2018-01-19T02:08:01.258Z,10.80
2018-01-19T02:10:03.970Z,10.50
2018-01-19T02:12:06.625Z,11.70
2018-01-19T02:14:09.298Z,11.90
2018-01-19T02:16:11.935Z,12.00
2018-01-19T02:18:14.734Z,12.90
2018-01-19T02:20:18.195Z,14.03
2018-01-19T02:22:20.836Z,15.07
2018-01-19T02:24:23.507Z,16.57
2018-01-19T02:26:26.167Z,16.23
2018-01-19T02:28:28.807Z,17.43
2018-01-19T02:30:31.487Z,16.17
2018-01-19T02:32:35.739Z,14.60
2018-01-19T02:34:38.389Z,15.50
2018-01-19T02:36:41.835Z,14.40
2018-01-19T02:38:44.485Z,13.30
2018-01-19T02:40:47.139Z,13.50
2018-01-19T02:42:50.725Z,13.83
2018-01-19T02:44:54.204Z,13.73
2018-01-19T02:46:56.836Z,14.20
2018-01-19T02:48:59.576Z,14.60
2018-01-19T02:51:02.997Z,14.47
2018-01-19T02:53:05.640Z,15.83
2018-01-19T02:55:08.298Z,18.80
2018-01-19T02:57:11.700Z,19.40
2018-01-19T02:59:14.355Z,21.43
2018-01-19T03:01:17.227Z,21.47
2018-01-19T03:03:19.882Z,21.50
2018-01-19T03:05:22.522Z,21.90
2018-01-19T03:07:26.050Z,23.40
2018-01-19T03:09:28.715Z,23.60
2018-01-19T03:11:31.456Z,23.50
2018-01-19T03:13:34.112Z,22.77
2018-01-19T03:15:36.769Z,22.93
2018-01-19T03:17:39.586Z,21.87
2018-01-19T03:19:42.231Z,21.77
2018-01-19T03:21:44.943Z,20.20
2018-01-19T03:23:47.606Z,22.17
2018-01-19T03:25:51.058Z,19.60
2018-01-19T03:27:53.697Z,20.33
2018-01-19T03:29:57.144Z,20.17
2018-01-19T03:31:59.802Z,18.27
2018-01-19T03:34:02.463Z,17.40
2018-01-19T03:36:05.147Z,15.63
2018-01-19T03:38:07.787Z,14.07
2018-01-19T03:40:10.632Z,13.30
2018-01-19T03:42:13.310Z,10.87
2018-01-19T03:44:15.971Z,9.27
2018-01-19T03:46:18.642Z,9.30
2018-01-19T03:48:21.487Z,9.17
2018-01-19T03:50:24.898Z,8.50
2018-01-19T03:52:27.544Z,7.80
2018-01-19T03:54:30.168Z,7.80
2018-01-19T03:56:32.843Z,8.40
2018-01-19T03:58:35.483Z,8.00
2018-01-19T04:00:38.920Z,7.97
2018-01-19T04:02:41.741Z,7.33
2018-01-19T04:04:44.393Z,6.60
2018-01-19T04:06:47.021Z,6.63
2018-01-19T04:08:51.198Z,7.13
2018-01-19T04:10:53.869Z,6.83
2018-01-19T04:12:56.526Z,6.50
2018-01-19T04:14:59.203Z,6.17
2018-01-19T04:17:01.952Z,7.17
2018-01-19T04:19:04.612Z,6.53
2018-01-19T04:21:08.026Z,6.80
2018-01-19T04:23:11.128Z,7.10
2018-01-19T04:25:20.664Z,6.83
2018-01-19T04:27:23.544Z,7.80
2018-01-19T04:29:26.329Z,7.23
2018-01-19T04:31:29.111Z,7.43
2018-01-19T04:33:31.755Z,7.00
2018-01-19T04:35:35.152Z,7.57
2018-01-19T04:37:38.589Z,7.70
